Terminal Aerodrome Forecast
Issued by NWS

Home | Current Version | Previous Version | Text Only | Print | Product List | Glossary On
Versions: 1 2 3 4 5 6 7 8 9 10 11 12 13 14 15 16 17 18 19 20 21 22 23 24 25 26 27 28 29 30 31
463
FTUS44 KFWD 280901 CCB
TAFGKY
TAF COR
KGKY 280901Z 2809/2906 09006KT P6SM BKN035
     FM281200 08007KT P6SM BKN012
     FM281500 12010KT 6SM -RA BR OVC007
     FM282100 14014KT P6SM VCSH OVC015
     FM290000 15013KT P6SM VCTS SCT015CB BKN040=

USA.gov is the U.S. government's official web portal to all federal, state and local government web resources and services.